createdAt,value
2022-10-08T00:01:32.250Z,3.28
2022-10-08T00:04:00.822Z,3.25
2022-10-08T00:06:33.365Z,3.70
2022-10-08T00:09:03.277Z,3.03
2022-10-08T00:11:33.244Z,3.20
2022-10-08T00:14:02.149Z,3.38
2022-10-08T00:16:33.776Z,2.85
2022-10-08T00:19:03.949Z,2.85
2022-10-08T00:21:35.522Z,3.17
2022-10-08T00:24:05.119Z,2.65
2022-10-08T00:26:37.599Z,3.35
2022-10-08T00:29:09.757Z,2.90
2022-10-08T00:31:40.511Z,3.10
2022-10-08T00:34:09.983Z,2.35
2022-10-08T00:36:40.524Z,2.72
2022-10-08T00:39:15.077Z,3.50
2022-10-08T00:41:45.240Z,2.38
2022-10-08T00:44:59.524Z,3.20
2022-10-08T00:47:42.199Z,2.63
2022-10-08T00:50:14.716Z,2.70
2022-10-08T00:52:47.510Z,2.13
2022-10-08T00:55:18.724Z,2.22
2022-10-08T00:57:46.891Z,2.30
2022-10-08T01:00:18.025Z,2.10
2022-10-08T01:02:46.505Z,2.08
2022-10-08T01:05:17.599Z,2.60
2022-10-08T01:07:51.932Z,1.90
2022-10-08T01:10:28.636Z,2.20
2022-10-08T01:13:11.233Z,2.10
2022-10-08T01:15:45.733Z,2.15
2022-10-08T01:18:23.375Z,2.30
2022-10-08T01:21:04.858Z,2.00
2022-10-08T01:23:55.277Z,1.65
2022-10-08T01:26:54.023Z,2.28
2022-10-08T01:29:28.793Z,2.42
2022-10-08T01:32:03.292Z,2.25
2022-10-08T01:34:38.248Z,1.98
2022-10-08T01:37:10.668Z,2.13
2022-10-08T01:39:41.598Z,2.25
2022-10-08T01:42:12.086Z,3.03
2022-10-08T01:44:46.368Z,2.22
2022-10-08T01:47:19.756Z,2.33
2022-10-08T01:49:54.711Z,2.00
2022-10-08T01:52:26.836Z,1.70
2022-10-08T01:54:58.813Z,1.98
2022-10-08T01:57:29.183Z,1.98
2022-10-08T02:00:03.905Z,2.45
2022-10-08T02:02:40.802Z,1.63
2022-10-08T02:05:09.339Z,2.05
2022-10-08T02:07:38.912Z,2.20
2022-10-08T02:10:10.013Z,1.98
2022-10-08T02:12:40.146Z,2.88
2022-10-08T02:15:12.977Z,1.58
2022-10-08T02:17:50.558Z,2.05
2022-10-08T02:20:23.767Z,1.75
2022-10-08T02:23:00.420Z,1.77
2022-10-08T02:25:34.636Z,2.20
2022-10-08T02:28:10.456Z,1.77
2022-10-08T02:30:47.852Z,1.65
2022-10-08T02:33:22.811Z,1.75
2022-10-08T02:35:54.982Z,2.00
2022-10-08T02:38:28.459Z,2.08
2022-10-08T02:41:02.116Z,2.58
2022-10-08T02:43:34.426Z,2.00
2022-10-08T02:46:09.770Z,2.05
2022-10-08T02:48:42.385Z,1.80
2022-10-08T02:51:18.695Z,2.47
2022-10-08T02:53:48.255Z,1.90
2022-10-08T02:56:21.600Z,1.85
2022-10-08T02:58:49.473Z,1.80
2022-10-08T03:01:26.591Z,2.65
2022-10-08T03:03:59.876Z,2.42
2022-10-08T03:06:30.062Z,1.92
2022-10-08T03:09:00.599Z,1.77
2022-10-08T03:11:31.289Z,1.83
2022-10-08T03:14:03.485Z,1.73
2022-10-08T03:16:39.113Z,2.00
2022-10-08T03:19:08.996Z,1.80
2022-10-08T03:21:39.418Z,2.63
2022-10-08T03:24:07.786Z,2.10
2022-10-08T03:26:36.401Z,1.90
2022-10-08T03:29:05.118Z,2.53
2022-10-08T03:31:34.826Z,2.10
2022-10-08T03:34:03.220Z,2.28
2022-10-08T03:36:31.217Z,2.00
2022-10-08T03:38:59.148Z,1.90
2022-10-08T03:41:27.034Z,2.42
2022-10-08T03:43:54.876Z,2.50
2022-10-08T03:46:22.836Z,1.67
2022-10-08T03:48:52.405Z,2.25
2022-10-08T03:51:20.950Z,2.13
2022-10-08T03:53:48.830Z,2.20
2022-10-08T03:56:19.574Z,3.03
2022-10-08T03:58:48.997Z,3.60
2022-10-08T04:01:18.954Z,2.38
2022-10-08T04:03:46.903Z,2.80
2022-10-08T04:06:16.290Z,2.78
2022-10-08T04:08:44.704Z,2.47
2022-10-08T04:11:18.219Z,2.80
2022-10-08T04:16:15.982Z,2.83
2022-10-08T04:18:44.767Z,3.15
2022-10-08T04:21:14.733Z,2.53
2022-10-08T04:23:45.262Z,2.60
2022-10-08T04:26:14.978Z,2.42
2022-10-08T04:28:45.171Z,2.50
2022-10-08T04:31:16.685Z,2.53
2022-10-08T04:33:45.682Z,3.05
2022-10-08T04:36:15.446Z,2.50
2022-10-08T04:38:45.257Z,2.38
2022-10-08T04:41:14.998Z,2.53
2022-10-08T04:43:44.117Z,3.08
2022-10-08T04:46:13.519Z,2.70
2022-10-08T04:48:46.646Z,3.55
2022-10-08T04:51:14.740Z,3.10
2022-10-08T04:53:44.369Z,3.55
2022-10-08T04:56:15.370Z,2.28
2022-10-08T04:58:43.279Z,2.50
2022-10-08T05:01:13.570Z,2.50
2022-10-08T05:03:43.692Z,2.72
2022-10-08T05:06:12.090Z,2.90
2022-10-08T05:08:40.158Z,2.40
2022-10-08T05:11:09.948Z,2.25
2022-10-08T05:13:38.024Z,2.47
2022-10-08T05:16:06.769Z,2.80
2022-10-08T05:18:35.560Z,2.33
2022-10-08T05:21:04.894Z,2.45
2022-10-08T05:23:32.979Z,2.60
2022-10-08T05:26:02.396Z,2.55
2022-10-08T05:28:31.759Z,2.60
2022-10-08T05:31:03.259Z,2.30
2022-10-08T05:33:31.276Z,2.50
2022-10-08T05:36:03.587Z,2.38
2022-10-08T05:38:34.995Z,2.53
2022-10-08T05:41:11.793Z,2.30
2022-10-08T05:43:41.630Z,2.40
2022-10-08T05:46:09.842Z,2.90
2022-10-08T05:48:38.498Z,3.38
2022-10-08T05:51:07.555Z,3.22
2022-10-08T05:53:37.292Z,4.65
2022-10-08T05:56:06.980Z,3.47
2022-10-08T05:58:36.837Z,2.83
2022-10-08T06:01:07.888Z,2.90
2022-10-08T06:03:36.235Z,2.92
2022-10-08T06:06:05.857Z,2.55
2022-10-08T06:08:34.304Z,2.80
2022-10-08T06:11:02.916Z,3.25
2022-10-08T06:13:31.020Z,2.38
2022-10-08T06:16:00.693Z,2.47
2022-10-08T06:18:32.953Z,2.42
2022-10-08T06:21:03.866Z,2.33
2022-10-08T06:23:32.148Z,2.67
2022-10-08T06:26:03.082Z,2.30
2022-10-08T06:28:31.063Z,3.00
2022-10-08T06:31:00.045Z,2.13
2022-10-08T06:33:28.551Z,2.38
2022-10-08T06:35:57.938Z,2.22
2022-10-08T06:38:25.929Z,2.20
2022-10-08T06:40:53.952Z,3.47
2022-10-08T06:43:22.517Z,2.97
2022-10-08T06:45:50.595Z,3.03
2022-10-08T06:48:19.798Z,3.92
2022-10-08T06:50:47.898Z,4.32
2022-10-08T06:53:24.826Z,3.28
2022-10-08T06:55:57.754Z,2.38
2022-10-08T06:58:25.935Z,3.13
2022-10-08T07:01:02.601Z,2.70
2022-10-08T07:03:31.105Z,2.00
2022-10-08T07:06:01.618Z,2.47
2022-10-08T07:08:32.033Z,1.83
2022-10-08T07:11:05.019Z,1.40
2022-10-08T07:13:33.309Z,1.13
2022-10-08T07:16:05.864Z,1.38
2022-10-08T07:18:35.568Z,1.70
2022-10-08T07:21:03.813Z,1.48
2022-10-08T07:23:33.667Z,1.85
2022-10-08T07:26:03.764Z,1.35
2022-10-08T07:28:34.197Z,1.73
2022-10-08T07:31:05.775Z,1.13
2022-10-08T07:33:34.304Z,2.20
2022-10-08T07:36:10.552Z,1.65
2022-10-08T07:38:40.832Z,1.20
2022-10-08T07:41:10.462Z,1.55
2022-10-08T07:43:41.298Z,1.50
2022-10-08T07:46:10.648Z,1.65
2022-10-08T07:48:38.752Z,1.30
2022-10-08T07:51:11.166Z,0.95
2022-10-08T07:53:41.335Z,1.30
2022-10-08T07:56:11.008Z,1.73
2022-10-08T07:58:39.245Z,1.63
2022-10-08T08:01:09.737Z,1.52
2022-10-08T08:03:38.057Z,1.88
2022-10-08T08:06:09.203Z,1.63
2022-10-08T08:08:39.279Z,2.10
2022-10-08T08:11:11.166Z,1.52
2022-10-08T08:13:40.951Z,2.08
2022-10-08T08:16:11.804Z,2.00
2022-10-08T08:18:42.349Z,1.70
2022-10-08T08:21:13.530Z,1.52
2022-10-08T08:23:43.998Z,2.00
2022-10-08T08:26:14.722Z,1.27
2022-10-08T08:28:42.763Z,1.10
2022-10-08T08:31:13.013Z,1.52
2022-10-08T08:33:41.580Z,0.88
2022-10-08T08:36:10.124Z,1.65
2022-10-08T08:38:39.061Z,1.35
2022-10-08T08:41:18.530Z,1.15
2022-10-08T08:44:00.491Z,1.98
2022-10-08T08:46:36.647Z,1.25
2022-10-08T08:49:14.873Z,1.08
2022-10-08T08:51:44.811Z,1.33
2022-10-08T08:54:16.273Z,1.50
2022-10-08T08:56:47.575Z,1.30
2022-10-08T08:59:27.337Z,1.30
2022-10-08T09:02:00.962Z,1.45
2022-10-08T09:07:20.425Z,1.70
2022-10-08T09:09:52.821Z,1.52
2022-10-08T09:12:23.103Z,1.38
2022-10-08T09:14:58.060Z,2.05
2022-10-08T09:17:32.844Z,1.30
2022-10-08T09:20:05.998Z,2.35
2022-10-08T09:22:38.837Z,1.55
2022-10-08T09:25:13.944Z,1.60
2022-10-08T09:27:46.564Z,1.88
2022-10-08T09:30:37.304Z,1.50
2022-10-08T09:33:26.178Z,1.20
2022-10-08T09:35:59.500Z,1.58
2022-10-08T09:38:29.825Z,1.17
2022-10-08T09:41:03.379Z,1.50
2022-10-08T09:43:33.430Z,1.30
2022-10-08T09:46:11.857Z,1.98
2022-10-08T09:48:41.690Z,1.45
2022-10-08T09:51:16.751Z,1.55
2022-10-08T09:53:47.460Z,1.73
2022-10-08T09:56:16.651Z,1.58
2022-10-08T09:58:53.761Z,1.80
2022-10-08T10:01:25.172Z,1.83
2022-10-08T10:03:56.229Z,1.90
2022-10-08T10:06:29.675Z,1.92
2022-10-08T10:09:05.003Z,1.50
2022-10-08T10:11:39.081Z,1.70
2022-10-08T10:14:15.586Z,2.22
2022-10-08T10:16:47.666Z,1.77
2022-10-08T10:19:19.944Z,1.75
2022-10-08T10:21:55.885Z,1.30
2022-10-08T10:24:45.736Z,1.80
2022-10-08T10:27:19.517Z,2.08
2022-10-08T10:29:56.210Z,1.67
2022-10-08T10:32:32.438Z,1.95
2022-10-08T10:35:08.508Z,1.65
2022-10-08T10:37:44.877Z,2.25
2022-10-08T10:40:37.823Z,1.92
2022-10-08T10:43:19.098Z,1.80
2022-10-08T10:45:52.097Z,1.55
2022-10-08T10:48:21.523Z,1.88
2022-10-08T10:51:05.175Z,1.98
2022-10-08T10:53:40.506Z,1.73
2022-10-08T10:56:15.997Z,1.38
2022-10-08T10:59:00.757Z,0.90
2022-10-08T11:01:36.223Z,1.15
2022-10-08T11:04:13.674Z,1.42
2022-10-08T11:06:59.733Z,1.40
2022-10-08T11:09:42.042Z,2.17
2022-10-08T11:12:27.106Z,1.95
2022-10-08T11:15:04.724Z,1.65
2022-10-08T11:18:03.704Z,1.77
2022-10-08T11:20:57.055Z,1.63
2022-10-08T11:23:41.627Z,1.05
2022-10-08T11:26:22.760Z,1.98
2022-10-08T11:29:02.579Z,1.55
2022-10-08T11:31:38.256Z,2.17
2022-10-08T11:34:19.592Z,2.17
2022-10-08T11:36:57.023Z,2.42
2022-10-08T11:39:33.568Z,1.50
2022-10-08T11:42:11.743Z,0.93
2022-10-08T11:44:40.200Z,0.70
2022-10-08T11:47:49.229Z,0.88
2022-10-08T11:50:36.053Z,0.45
2022-10-08T11:53:21.192Z,1.52
2022-10-08T11:55:52.878Z,1.15
2022-10-08T11:58:24.746Z,0.90
2022-10-08T12:01:01.557Z,1.10
2022-10-08T12:03:33.968Z,1.30
2022-10-08T12:06:16.491Z,1.10
2022-10-08T12:08:57.220Z,1.50
2022-10-08T12:11:48.361Z,1.48
2022-10-08T12:14:35.114Z,1.20
2022-10-08T12:17:10.999Z,1.60
2022-10-08T12:20:07.676Z,1.60
2022-10-08T12:22:44.578Z,2.10
2022-10-08T12:25:44.269Z,2.03
2022-10-08T12:28:50.179Z,2.63
2022-10-08T12:31:30.721Z,1.60
2022-10-08T12:34:01.705Z,2.03
2022-10-08T12:36:44.605Z,2.00
2022-10-08T12:39:29.917Z,1.75
2022-10-08T12:42:08.482Z,1.65
2022-10-08T12:44:48.990Z,1.30
2022-10-08T12:47:28.281Z,1.40
2022-10-08T12:50:04.164Z,1.00
2022-10-08T12:52:36.033Z,1.63
2022-10-08T12:55:06.232Z,0.90
2022-10-08T12:57:41.751Z,1.42
2022-10-08T13:00:22.949Z,1.83
2022-10-08T13:03:00.874Z,1.52
2022-10-08T13:05:31.492Z,1.15
2022-10-08T13:07:59.992Z,1.52
2022-10-08T13:10:30.445Z,1.30
2022-10-08T13:13:04.723Z,1.17
2022-10-08T13:15:34.234Z,0.95
2022-10-08T13:18:14.299Z,1.33
2022-10-08T13:20:56.539Z,1.08
2022-10-08T13:23:34.394Z,0.88
2022-10-08T13:26:02.581Z,0.90
2022-10-08T13:28:59.426Z,0.90
2022-10-08T13:31:24.888Z,1.08
2022-10-08T13:33:53.312Z,1.02
2022-10-08T13:36:24.097Z,1.25
2022-10-08T13:38:52.341Z,1.15
2022-10-08T13:41:24.217Z,0.90
2022-10-08T13:43:53.669Z,1.20
2022-10-08T13:46:21.892Z,1.75
2022-10-08T13:48:49.951Z,1.25
2022-10-08T13:51:18.101Z,1.20
2022-10-08T13:53:46.262Z,1.70
2022-10-08T13:56:14.995Z,2.08
2022-10-08T13:58:43.323Z,1.60
2022-10-08T14:01:12.861Z,1.83
2022-10-08T14:03:41.076Z,1.95
2022-10-08T14:06:09.006Z,1.55
2022-10-08T14:08:37.689Z,1.90
2022-10-08T14:11:05.734Z,1.50
2022-10-08T14:13:34.381Z,1.80
2022-10-08T14:16:02.438Z,1.80
2022-10-08T14:18:32.376Z,1.60
2022-10-08T14:21:00.581Z,1.55
2022-10-08T14:23:28.621Z,1.58
2022-10-08T14:25:56.873Z,0.95
2022-10-08T14:28:25.570Z,1.40
2022-10-08T14:30:53.856Z,1.20
2022-10-08T14:33:22.258Z,0.85
2022-10-08T14:35:54.438Z,1.60
2022-10-08T14:38:22.463Z,1.42
2022-10-08T14:40:50.483Z,1.23
2022-10-08T14:43:18.467Z,1.63
2022-10-08T14:45:46.479Z,1.17
2022-10-08T14:48:14.520Z,1.63
2022-10-08T14:50:42.605Z,1.90
2022-10-08T14:53:12.325Z,1.80
2022-10-08T14:56:00.551Z,1.80
2022-10-08T14:58:28.455Z,2.15
2022-10-08T15:00:56.483Z,1.98
2022-10-08T15:03:24.726Z,1.27
2022-10-08T15:05:54.971Z,1.80
2022-10-08T15:08:24.588Z,1.48
2022-10-08T15:10:52.459Z,1.42
2022-10-08T15:13:20.622Z,1.50
2022-10-08T15:15:48.504Z,1.75
2022-10-08T15:18:17.043Z,1.58
2022-10-08T15:20:45.072Z,1.55
2022-10-08T15:23:13.731Z,1.80
2022-10-08T15:25:43.375Z,1.70
2022-10-08T15:28:12.313Z,1.75
2022-10-08T15:30:41.022Z,1.50
2022-10-08T15:33:09.060Z,2.15
2022-10-08T15:35:37.253Z,2.17
2022-10-08T15:38:05.892Z,2.08
2022-10-08T15:40:33.958Z,1.77
2022-10-08T15:43:04.619Z,1.80
2022-10-08T15:45:33.121Z,1.55
2022-10-08T15:48:01.804Z,1.73
2022-10-08T15:50:30.119Z,1.75
2022-10-08T15:52:58.098Z,1.85
2022-10-08T15:55:26.167Z,1.63
2022-10-08T15:57:54.086Z,1.70
2022-10-08T16:00:23.984Z,1.92
2022-10-08T16:02:52.573Z,1.20
2022-10-08T16:05:22.158Z,2.15
2022-10-08T16:07:50.456Z,2.40
2022-10-08T16:10:18.565Z,1.42
2022-10-08T16:12:47.146Z,1.45
2022-10-08T16:15:15.487Z,1.30
2022-10-08T16:17:45.134Z,1.13
2022-10-08T16:20:13.921Z,1.27
2022-10-08T16:22:42.180Z,1.40
2022-10-08T16:25:11.230Z,1.48
2022-10-08T16:27:40.137Z,1.65
2022-10-08T16:30:09.553Z,1.58
2022-10-08T16:32:38.015Z,1.45
2022-10-08T16:35:08.198Z,1.42
2022-10-08T16:37:36.922Z,1.40
2022-10-08T16:40:05.485Z,1.60
2022-10-08T16:42:33.597Z,1.70
2022-10-08T16:45:01.569Z,1.77
2022-10-08T16:47:29.736Z,1.60
2022-10-08T16:49:57.684Z,1.50
2022-10-08T16:52:27.061Z,1.75
2022-10-08T16:54:55.606Z,1.50
2022-10-08T16:57:24.795Z,2.15
2022-10-08T16:59:52.806Z,1.92
2022-10-08T17:02:25.628Z,1.48
2022-10-08T17:04:56.938Z,2.95
2022-10-08T17:07:24.968Z,1.80
2022-10-08T17:09:54.987Z,1.98
2022-10-08T17:12:22.983Z,1.30
2022-10-08T17:14:51.071Z,1.65
2022-10-08T17:17:19.060Z,2.17
2022-10-08T17:19:47.180Z,1.58
2022-10-08T17:22:16.835Z,1.67
2022-10-08T17:24:44.888Z,2.03
2022-10-08T17:27:14.321Z,2.33
2022-10-08T17:29:42.257Z,1.73
2022-10-08T17:32:11.731Z,1.40
2022-10-08T17:34:42.098Z,1.92
2022-10-08T17:37:10.846Z,2.08
2022-10-08T17:39:39.016Z,1.42
2022-10-08T17:42:07.425Z,1.90
2022-10-08T17:44:36.936Z,1.80
2022-10-08T17:47:09.579Z,1.65
2022-10-08T17:49:37.899Z,2.70
2022-10-08T17:52:06.049Z,2.33
2022-10-08T17:54:33.989Z,1.63
2022-10-08T17:57:03.192Z,1.13
2022-10-08T17:59:31.316Z,2.03
2022-10-08T18:02:00.702Z,1.45
2022-10-08T18:04:29.106Z,1.80
2022-10-08T18:07:02.497Z,1.85
2022-10-08T18:09:31.275Z,1.50
2022-10-08T18:11:59.277Z,1.27
2022-10-08T18:14:27.177Z,1.58
2022-10-08T18:16:55.095Z,1.67
2022-10-08T18:19:24.767Z,1.83
2022-10-08T18:21:52.856Z,1.77
2022-10-08T18:24:21.203Z,1.65
2022-10-08T18:26:51.506Z,1.80
2022-10-08T18:29:19.874Z,1.77
2022-10-08T18:31:47.984Z,2.22
2022-10-08T18:34:17.982Z,1.90
2022-10-08T18:36:47.770Z,1.42
2022-10-08T18:39:17.365Z,1.90
2022-10-08T18:41:47.233Z,2.05
2022-10-08T18:44:17.811Z,1.92
2022-10-08T18:46:46.045Z,1.85
2022-10-08T18:49:16.058Z,1.75
2022-10-08T18:51:44.653Z,2.35
2022-10-08T18:54:14.159Z,1.90
2022-10-08T18:56:42.784Z,2.08
2022-10-08T18:59:13.580Z,2.90
2022-10-08T19:01:43.643Z,2.95
2022-10-08T19:04:14.465Z,2.35
2022-10-08T19:06:44.051Z,3.03
2022-10-08T19:09:12.129Z,3.78
2022-10-08T19:11:45.215Z,3.35
2022-10-08T19:14:15.767Z,3.60
2022-10-08T19:16:44.743Z,3.20
2022-10-08T19:19:15.140Z,3.47
2022-10-08T19:21:43.883Z,4.00
2022-10-08T19:24:15.730Z,4.00
2022-10-08T19:26:45.948Z,5.00
2022-10-08T19:29:16.568Z,5.03
2022-10-08T19:31:47.562Z,4.35
2022-10-08T19:34:17.632Z,3.30
2022-10-08T19:36:46.805Z,3.58
2022-10-08T19:39:16.987Z,3.10
2022-10-08T19:41:47.204Z,3.22
2022-10-08T19:44:16.495Z,3.47
2022-10-08T19:46:44.980Z,3.15
2022-10-08T19:49:13.894Z,4.40
2022-10-08T19:51:42.320Z,3.03
2022-10-08T19:54:11.275Z,3.95
2022-10-08T19:56:39.444Z,3.55
2022-10-08T19:59:11.167Z,3.17
2022-10-08T20:01:41.735Z,3.08
2022-10-08T20:04:11.273Z,4.18
2022-10-08T20:06:41.216Z,3.40
2022-10-08T20:09:12.895Z,3.38
2022-10-08T20:11:42.251Z,3.05
2022-10-08T20:14:12.655Z,3.28
2022-10-08T20:16:42.558Z,3.55
2022-10-08T20:19:16.705Z,3.13
2022-10-08T20:21:45.498Z,3.15
2022-10-08T20:24:13.861Z,4.45
2022-10-08T20:26:43.624Z,4.15
2022-10-08T20:29:15.030Z,3.40
2022-10-08T20:31:44.471Z,4.35
2022-10-08T20:34:14.639Z,3.92
2022-10-08T20:36:43.040Z,4.10
2022-10-08T20:39:12.630Z,4.25
2022-10-08T20:41:40.697Z,3.53
2022-10-08T20:44:09.769Z,2.90
2022-10-08T20:46:39.637Z,3.10
2022-10-08T20:49:07.817Z,3.08
2022-10-08T20:51:36.233Z,2.85
2022-10-08T20:54:06.915Z,2.90
2022-10-08T20:56:39.716Z,2.55
2022-10-08T20:59:09.288Z,3.33
2022-10-08T21:01:39.697Z,2.97
2022-10-08T21:04:08.794Z,2.67
2022-10-08T21:06:39.281Z,2.17
2022-10-08T21:09:08.116Z,2.13
2022-10-08T21:11:37.247Z,2.92
2022-10-08T21:14:07.062Z,2.38
2022-10-08T21:16:37.452Z,2.55
2022-10-08T21:19:09.103Z,2.22
2022-10-08T21:21:37.628Z,2.10
2022-10-08T21:24:06.333Z,2.53
2022-10-08T21:26:36.642Z,3.45
2022-10-08T21:29:07.106Z,1.85
2022-10-08T21:31:36.895Z,2.28
2022-10-08T21:34:05.968Z,2.67
2022-10-08T21:36:37.539Z,2.20
2022-10-08T21:39:07.591Z,1.70
2022-10-08T21:41:37.440Z,1.95
2022-10-08T21:44:08.166Z,2.40
2022-10-08T21:46:38.280Z,2.67
2022-10-08T21:49:08.788Z,2.63
2022-10-08T21:51:38.470Z,2.97
2022-10-08T21:54:07.978Z,2.70
2022-10-08T21:56:38.252Z,2.47
2022-10-08T21:59:08.200Z,3.08
2022-10-08T22:01:38.380Z,2.67
2022-10-08T22:04:08.176Z,2.55
2022-10-08T22:06:40.225Z,2.00
2022-10-08T22:09:11.837Z,2.40
2022-10-08T22:11:40.070Z,2.33
2022-10-08T22:14:08.681Z,2.80
2022-10-08T22:16:37.393Z,2.15
2022-10-08T22:19:19.005Z,2.72
2022-10-08T22:21:50.825Z,2.85
2022-10-08T22:24:19.682Z,2.22
2022-10-08T22:26:58.891Z,3.17
2022-10-08T22:29:27.060Z,2.30
2022-10-08T22:31:55.294Z,2.97
2022-10-08T22:34:28.858Z,2.15
2022-10-08T22:37:01.260Z,2.63
2022-10-08T22:39:31.082Z,2.13
2022-10-08T22:41:59.603Z,2.15
2022-10-08T22:44:33.874Z,4.30
2022-10-08T22:47:08.891Z,3.40
2022-10-08T22:49:37.528Z,2.55
2022-10-08T22:52:13.031Z,3.30
2022-10-08T22:54:48.636Z,3.17
2022-10-08T22:57:31.705Z,3.28
2022-10-08T23:00:01.533Z,3.70
2022-10-08T23:02:35.736Z,3.53
2022-10-08T23:05:09.801Z,4.22
2022-10-08T23:07:41.094Z,4.28
2022-10-08T23:10:11.354Z,4.45
2022-10-08T23:12:45.036Z,4.40
2022-10-08T23:17:42.563Z,3.92
2022-10-08T23:20:11.084Z,3.40
2022-10-08T23:22:40.762Z,3.30
2022-10-08T23:25:10.309Z,2.90
2022-10-08T23:27:38.476Z,2.47
2022-10-08T23:30:20.743Z,2.85
2022-10-08T23:32:55.557Z,2.78
2022-10-08T23:35:23.474Z,2.45
2022-10-08T23:37:52.748Z,2.80
2022-10-08T23:40:20.754Z,2.40
2022-10-08T23:42:48.919Z,2.67
2022-10-08T23:45:17.137Z,2.65
2022-10-08T23:47:45.367Z,2.97
2022-10-08T23:50:13.929Z,2.78
2022-10-08T23:52:42.288Z,3.03
2022-10-08T23:55:12.552Z,3.28
2022-10-08T23:57:40.455Z,2.65
